EST,Max TemperatureF,Mean TemperatureF,Min TemperatureF,Max Dew PointF,MeanDew PointF,Min DewpointF,Max Humidity, Mean Humidity, Min Humidity, Max Sea Level PressureIn, Mean Sea Level PressureIn, Min Sea Level PressureIn, Max VisibilityMiles, Mean VisibilityMiles, Min VisibilityMiles, Max Wind SpeedMPH, Mean Wind SpeedMPH, Max Gust SpeedMPH,PrecipitationIn, CloudCover, Events, WindDirDegrees
2013-12-1,30,27,24,30,26,21,100,91,80,30.12,30.06,30.02,10,9,1,7,3,,0.00,8,,48
2013-12-2,35,24,14,27,20,12,100,87,64,30.01,29.94,29.90,10,10,0,10,3,,0.00,3,,38
2013-12-3,23,16,10,21,16,9,100,95,86,30.00,29.97,29.94,10,9,1,17,7,21,0.00,5,,62
2013-12-4,39,28,21,36,25,19,100,97,86,29.99,29.83,29.41,10,6,1,33,16,43,0.37,8,,82
2013-12-5,44,29,14,45,25,7,100,82,64,30.01,29.63,29.36,10,9,2,23,15,37,0.08,5,,232
2013-12-6,21,14,8,12,9,3,92,79,68,30.27,30.14,30.00,10,10,10,18,11,23,0.00,3,,247
2013-12-7,19,12,6,9,5,-2,92,78,58,30.46,30.39,30.27,10,10,10,20,10,23,0.00,1,,252
2013-12-8,19,8,0,18,7,-2,100,85,53,30.48,30.35,30.05,10,8,2,8,6,,0.02,4,,174
2013-12-9,26,16,3,25,16,0,100,89,73,30.03,29.78,29.65,10,7,1,21,8,29,0.07,5,,277
2013-12-10,17,6,-5,10,1,-8,100,82,68,29.93,29.84,29.73,10,9,1,16,8,25,0.00,4,,244
2013-12-11,14,7,0,9,2,-6,92,84,72,30.24,30.11,29.93,10,8,1,17,11,23,0.00,3,,255
2013-12-12,15,6,-2,7,-1,-9,85,71,52,30.21,30.06,29.93,10,10,4,20,9,26,0.00,3,,245
2013-12-13,12,2,-9,10,-5,-11,100,80,48,30.40,30.23,29.93,10,8,0,17,8,23,0.00,4,,25
2013-12-14,8,0,-7,1,-5,-11,92,78,61,30.41,30.23,29.92,10,9,3,14,9,18,0.00,4,,64
2013-12-15,10,5,-2,9,3,-6,100,90,85,29.96,29.79,29.69,10,6,1,9,6,,0.00,7,,46
2013-12-16,15,-2,-16,12,-4,-18,100,84,66,30.12,30.03,29.90,10,9,1,14,5,,0.00,2,,101
2013-12-17,21,16,12,19,16,12,100,95,86,29.88,29.79,29.75,10,7,2,13,6,,0.01,8,,203
2013-12-18,24,18,14,21,17,12,100,91,74,29.94,29.86,29.71,10,9,1,15,9,21,0.00,7,,225
2013-12-19,28,22,15,25,19,12,100,91,74,30.05,29.88,29.67,10,10,4,18,7,24,0.00,5,,297
2013-12-20,17,14,10,16,12,9,100,90,73,30.03,29.96,29.85,10,8,2,10,7,,0.00,6,,33
2013-12-21,21,18,15,18,16,14,100,91,80,30.02,29.92,29.83,10,10,4,14,5,20,0.00,4,,41
2013-12-22,19,12,6,14,9,3,92,86,73,30.05,29.93,29.86,10,5,0,21,14,29,0.00,7,,32
2013-12-23,10,2,-5,3,-1,-8,100,86,67,30.34,30.21,30.07,10,7,1,10,6,,0.00,5,,24
2013-12-24,17,2,-11,9,-6,-15,92,83,53,30.45,30.41,30.33,10,10,10,13,4,,0.00,1,,54
2013-12-25,21,11,3,19,12,0,100,94,85,30.36,30.09,29.97,10,6,1,20,10,28,0.00,7,,178
2013-12-26,24,15,6,18,11,5,100,88,68,30.14,30.04,29.94,10,10,10,12,5,17,0.00,4,,232
2013-12-27,33,18,3,34,15,1,100,91,79,30.16,30.03,29.80,10,10,3,15,7,20,0.00,6,,210
2013-12-28,35,32,26,34,31,25,100,94,87,29.94,29.85,29.74,10,8,3,12,7,,0.00,8,,182
2013-12-29,23,10,-7,25,6,-9,100,92,79,30.02,29.84,29.72,10,5,2,18,11,22,0.00,8,,10
2013-12-30,15,-1,-16,7,-5,-20,92,83,62,30.16,30.08,29.99,10,10,9,10,3,,0.00,4,,173
2013-12-31,12,5,-2,5,1,-6,100,87,62,30.21,30.01,29.90,10,8,1,20,7,31,0.00,4,,244